Time;durP1;ratioP1;P1;durP2;ratioP2;P2;SDS_P1;SDS_P2;PMS_P1;PMS_P2;Temp;Humidity;BMP_temperature;BMP_pressure;BME280_temperature;BME280_humidity;BME280_pressure;Samples;Min_cycle;Max_cycle;Signal;HPM_P1;HPM_P2
2023/11/26 00:00:17;;;;;;;1.88;0.40;;;;;;;6.56;55.96;95547.53;4973717;28;20169;-75
2023/11/26 00:02:42;;;;;;;0.40;0.25;;;;;;;6.63;56.30;95553.66;4973704;28;20023;-76
2023/11/26 00:05:08;;;;;;;0.45;0.20;;;;;;;6.60;55.86;95517.72;4973646;28;20050;-76
2023/11/26 00:07:33;;;;;;;0.70;0.35;;;;;;;6.63;55.64;95537.31;4989878;28;20387;-74
2023/11/26 00:09:59;;;;;;;0.45;0.30;;;;;;;6.61;55.61;95534.88;4989838;28;20031;-76
2023/11/26 00:12:24;;;;;;;0.40;0.15;;;;;;;6.61;55.49;95566.00;4973975;28;20054;-76
2023/11/26 00:14:50;;;;;;;0.35;0.20;;;;;;;6.59;55.54;95541.22;4990025;28;20405;-76
2023/11/26 00:17:15;;;;;;;0.47;0.17;;;;;;;6.59;55.02;95510.13;4989975;28;20581;-74
2023/11/26 00:19:41;;;;;;;0.17;0.10;;;;;;;6.63;55.10;95522.56;4973507;28;20035;-74
2023/11/26 00:22:06;;;;;;;0.25;0.20;;;;;;;6.61;55.17;95503.78;4989503;28;20085;-74
2023/11/26 00:24:32;;;;;;;0.17;0.10;;;;;;;6.64;55.32;95489.66;4973556;28;20070;-74
2023/11/26 00:26:57;;;;;;;0.22;0.10;;;;;;;6.59;55.07;95492.75;4973798;28;20130;-74
2023/11/26 00:29:23;;;;;;;0.10;0.10;;;;;;;6.63;54.81;95535.50;4973445;28;20035;-73
2023/11/26 00:31:49;;;;;;;0.35;0.15;;;;;;;6.63;55.57;95545.88;4973419;28;20027;-76
2023/11/26 00:34:15;;;;;;;0.08;0.08;;;;;;;6.59;54.96;95557.56;4957662;28;20418;-74
2023/11/26 00:36:40;;;;;;;0.10;0.00;;;;;;;6.63;55.29;95566.63;4989104;28;20483;-76
2023/11/26 00:39:06;;;;;;;2.55;0.10;;;;;;;6.64;55.05;95557.06;4957549;28;20101;-74
2023/11/26 00:41:31;;;;;;;1.30;0.10;;;;;;;6.65;54.74;95566.44;4957285;28;20046;-76
2023/11/26 00:43:57;;;;;;;0.20;0.00;;;;;;;6.67;55.14;95542.00;4973672;28;20129;-77
2023/11/26 00:46:23;;;;;;;0.10;0.00;;;;;;;6.69;54.85;95563.34;4957246;28;20038;-75
2023/11/26 00:48:48;;;;;;;0.20;0.10;;;;;;;6.67;55.08;95575.69;4989250;28;20046;-75
2023/11/26 00:51:20;;;;;;;0.00;0.00;;;;;;;6.67;54.72;95575.69;4973049;28;20035;-75
2023/11/26 00:53:46;;;;;;;0.22;0.00;;;;;;;6.65;54.30;95587.19;4989400;28;20155;-76
2023/11/26 00:56:11;;;;;;;0.32;0.10;;;;;;;6.61;54.48;95562.56;4973211;28;20073;-76
2023/11/26 00:58:37;;;;;;;0.10;0.00;;;;;;;6.60;53.97;95560.97;4989062;28;20090;-76
2023/11/26 01:01:03;;;;;;;0.43;0.10;;;;;;;6.62;54.13;95556.41;4987902;28;20487;-75
2023/11/26 01:03:28;;;;;;;0.25;0.00;;;;;;;6.57;54.03;95540.59;4988773;28;20124;-75
2023/11/26 01:05:54;;;;;;;0.00;0.00;;;;;;;6.56;53.54;95531.19;4972647;28;20031;-75
2023/11/26 01:08:20;;;;;;;0.63;0.00;;;;;;;6.56;53.48;95549.31;4973144;28;20035;-75
2023/11/26 01:10:45;;;;;;;2.17;0.10;;;;;;;6.59;53.71;95531.63;4989054;28;20026;-76
2023/11/26 01:13:11;;;;;;;0.68;0.38;;;;;;;6.60;53.88;95556.59;4988818;28;20034;-75
2023/11/26 01:15:37;;;;;;;1.02;0.52;;;;;;;6.59;53.53;95551.56;4972842;28;20430;-75
2023/11/26 01:18:03;;;;;;;1.17;0.45;;;;;;;6.55;53.77;95540.75;4956374;28;20038;-75
2023/11/26 01:20:29;;;;;;;1.48;0.50;;;;;;;6.54;53.41;95554.69;4972646;28;20023;-75
2023/11/26 01:22:54;;;;;;;1.17;0.50;;;;;;;6.57;53.71;95563.91;4972175;28;20050;-75
2023/11/26 01:25:20;;;;;;;6.45;0.50;;;;;;;6.50;53.67;95561.19;4956315;28;20058;-75
2023/11/26 01:27:45;;;;;;;1.10;0.60;;;;;;;6.52;53.42;95569.59;4973882;28;20023;-75
2023/11/26 01:30:11;;;;;;;1.52;0.60;;;;;;;6.51;54.17;95573.97;4956729;28;20414;-75
2023/11/26 01:32:37;;;;;;;0.95;0.50;;;;;;;6.49;53.97;95585.47;4972410;28;20030;-77
2023/11/26 01:35:02;;;;;;;1.25;0.60;;;;;;;6.54;53.60;95584.97;4988437;28;20030;-75
2023/11/26 01:37:31;;;;;;;1.23;0.50;;;;;;;6.51;53.60;95609.44;4972337;28;20077;-75
2023/11/26 01:39:57;;;;;;;0.77;0.30;;;;;;;6.51;53.48;95592.13;4957126;28;20046;-77
2023/11/26 01:42:23;;;;;;;1.08;0.40;;;;;;;6.54;54.18;95598.72;4956342;28;20026;-75
2023/11/26 01:44:48;;;;;;;0.65;0.40;;;;;;;6.54;53.68;95583.19;4972349;28;20042;-75
2023/11/26 01:47:14;;;;;;;1.25;0.30;;;;;;;6.51;53.34;95596.47;4988136;28;20023;-76
2023/11/26 01:49:39;;;;;;;0.35;0.20;;;;;;;6.46;53.58;95581.44;4988950;28;20039;-75
2023/11/26 01:52:07;;;;;;;10.07;0.70;;;;;;;6.49;53.33;95603.63;4957147;28;20426;-75
2023/11/26 01:54:37;;;;;;;0.43;0.20;;;;;;;6.47;53.29;95571.91;4972290;28;20449;-75
2023/11/26 01:57:04;;;;;;;0.88;0.20;;;;;;;6.48;53.21;95613.19;4956159;28;20023;-75
2023/11/26 01:59:30;;;;;;;0.85;0.15;;;;;;;6.49;53.50;95588.06;4972139;28;20486;-75
2023/11/26 02:01:55;;;;;;;1.98;0.30;;;;;;;6.49;53.19;95624.34;4955822;28;20043;-75
2023/11/26 02:04:21;;;;;;;0.88;0.20;;;;;;;6.46;53.15;95611.72;4988199;28;20057;-75
2023/11/26 02:06:47;;;;;;;0.20;0.10;;;;;;;6.49;53.03;95632.13;4988222;28;20035;-75
2023/11/26 02:09:13;;;;;;;0.88;0.10;;;;;;;6.47;53.33;95634.88;4956016;28;20416;-75
2023/11/26 02:11:39;;;;;;;2.28;0.20;;;;;;;6.49;53.00;95613.97;4988283;28;20034;-74
2023/11/26 02:14:05;;;;;;;0.00;0.00;;;;;;;6.48;52.45;95614.94;4988302;28;20038;-74
2023/11/26 02:16:30;;;;;;;3.75;0.20;;;;;;;6.45;52.72;95597.16;4988212;28;20394;-74
2023/11/26 02:18:56;;;;;;;0.13;0.10;;;;;;;6.41;52.70;95601.06;4988133;28;20452;-74
2023/11/26 02:21:21;;;;;;;1.95;0.10;;;;;;;6.44;52.76;95627.44;4972074;28;20043;-74
2023/11/26 02:23:47;;;;;;;0.93;0.10;;;;;;;6.41;52.52;95632.16;4972181;28;20630;-74
2023/11/26 02:26:12;;;;;;;0.00;0.00;;;;;;;6.44;52.73;95643.00;4971720;28;20490;-75
2023/11/26 02:28:40;;;;;;;0.00;0.00;;;;;;;6.43;52.90;95640.56;4988142;28;20038;-75
2023/11/26 02:31:05;;;;;;;0.45;0.10;;;;;;;6.42;52.71;95649.31;4971915;28;20034;-74
2023/11/26 02:33:32;;;;;;;0.45;0.10;;;;;;;6.44;52.10;95662.91;4988603;28;20034;-74
2023/11/26 02:35:58;;;;;;;0.65;0.10;;;;;;;6.40;52.23;95674.56;4973584;28;20027;-74
2023/11/26 02:38:24;;;;;;;0.10;0.00;;;;;;;6.44;51.97;95707.75;4975348;28;20501;-74
2023/11/26 02:40:49;;;;;;;0.10;0.03;;;;;;;6.48;52.10;95709.06;4959935;28;20041;-74
2023/11/26 02:43:16;;;;;;;0.10;0.10;;;;;;;6.46;51.28;95718.75;4975641;28;20422;-74
2023/11/26 02:45:42;;;;;;;0.05;0.03;;;;;;;6.44;51.71;95710.34;4975151;28;20030;-75
2023/11/26 02:48:08;;;;;;;0.52;0.17;;;;;;;6.49;51.90;95713.25;4991506;28;20039;-75
2023/11/26 02:50:33;;;;;;;1.83;0.77;;;;;;;6.52;51.05;95717.31;4991504;28;20045;-75
2023/11/26 02:52:59;;;;;;;1.98;0.88;;;;;;;6.46;51.71;95720.56;4959213;28;20036;-74
2023/11/26 02:55:24;;;;;;;3.85;1.35;;;;;;;6.49;51.45;95718.44;4975287;28;20030;-75
2023/11/26 02:57:50;;;;;;;2.83;1.30;;;;;;;6.42;51.55;95709.72;4975254;28;20049;-75
2023/11/26 03:00:16;;;;;;;2.58;1.13;;;;;;;6.44;51.44;95725.09;4991544;28;20113;-75
2023/11/26 03:02:44;;;;;;;1.67;0.77;;;;;;;6.42;51.32;95727.88;4975100;28;20413;-75
2023/11/26 03:05:17;;;;;;;1.90;1.00;;;;;;;6.39;51.49;95723.00;4974761;28;20045;-75
2023/11/26 03:07:46;;;;;;;1.73;0.90;;;;;;;6.37;51.13;95717.16;4956739;28;20046;-74
2023/11/26 03:13:20;;;;;;;0.88;0.47;;;;;;;6.39;50.87;95759.28;4956761;29;20037;-75
2023/11/26 03:15:48;;;;;;;2.22;0.50;;;;;;;6.39;51.18;95779.19;4957221;28;20042;-76
2023/11/26 03:18:14;;;;;;;1.27;0.60;;;;;;;6.41;51.30;95797.97;4940494;28;20042;-75
2023/11/26 03:20:40;;;;;;;0.90;0.47;;;;;;;6.33;51.39;95802.19;4955591;28;20043;-75
2023/11/26 03:23:05;;;;;;;1.05;0.50;;;;;;;6.33;51.18;95783.25;4939535;28;20035;-75
2023/11/26 03:25:35;;;;;;;1.08;0.32;;;;;;;6.34;51.28;95795.22;4971493;28;20179;-75
2023/11/26 03:28:00;;;;;;;0.60;0.30;;;;;;;6.38;50.99;95813.84;4971137;28;20407;-75
2023/11/26 03:30:26;;;;;;;0.80;0.40;;;;;;;6.38;50.87;95819.84;4971391;28;20045;-75
2023/11/26 03:32:55;;;;;;;0.55;0.17;;;;;;;6.38;51.27;95826.81;4971393;28;20035;-75
2023/11/26 03:35:20;;;;;;;;;;;;;;;6.38;50.96;95837.19;4971821;28;20038;-75
2023/11/26 03:37:46;;;;;;;0.57;0.30;;;;;;;6.29;50.95;95844.13;4955017;29;19915;-75
2023/11/26 03:40:12;;;;;;;3.35;0.65;;;;;;;6.31;51.16;95843.00;4955011;28;20487;-75
2023/11/26 03:42:39;;;;;;;2.03;1.10;;;;;;;6.31;51.59;95845.59;4971548;28;20387;-76
2023/11/26 03:45:06;;;;;;;1.77;0.90;;;;;;;6.36;51.20;95867.59;4971449;28;20043;-76
2023/11/26 03:47:31;;;;;;;2.17;1.00;;;;;;;6.37;50.26;95869.22;4970416;28;20027;-76
2023/11/26 03:49:57;;;;;;;3.83;1.35;;;;;;;6.35;50.48;95903.06;4938955;28;20554;-76
2023/11/26 03:52:23;;;;;;;2.70;1.60;;;;;;;6.32;50.78;95882.66;4955013;29;20447;-77
2023/11/26 03:54:51;;;;;;;1.85;1.00;;;;;;;6.33;51.12;95905.00;4971371;28;20030;-76
2023/11/26 03:57:17;;;;;;;1.63;0.80;;;;;;;6.34;50.65;95916.97;4954963;29;20063;-76
2023/11/26 03:59:43;;;;;;;2.30;0.82;;;;;;;6.33;50.71;95913.59;4955217;29;20081;-77
2023/11/26 04:02:08;;;;;;;2.90;0.80;;;;;;;6.31;50.61;95927.69;4970822;28;20043;-76
2023/11/26 04:04:34;;;;;;;1.40;0.70;;;;;;;6.30;50.61;95890.59;4970848;28;20039;-75
2023/11/26 04:07:00;;;;;;;1.10;0.60;;;;;;;6.30;50.66;95932.03;4954373;29;20403;-77
2023/11/26 04:09:26;;;;;;;7.43;0.57;;;;;;;6.25;50.67;95941.28;4970691;28;20043;-76
2023/11/26 04:11:56;;;;;;;4.30;0.45;;;;;;;6.28;50.64;95951.31;4954984;28;20483;-77
2023/11/26 04:14:22;;;;;;;5.72;0.60;;;;;;;6.26;51.03;95964.44;4955299;28;20050;-76
2023/11/26 04:16:48;;;;;;;0.88;0.50;;;;;;;6.25;50.72;95949.06;4970758;28;20035;-75
2023/11/26 04:19:17;;;;;;;1.55;0.32;;;;;;;6.30;51.18;95962.34;4970554;28;20061;-76
2023/11/26 04:21:46;;;;;;;1.30;0.50;;;;;;;6.31;50.82;95975.13;4970304;28;20047;-77
2023/11/26 04:24:12;;;;;;;1.52;0.30;;;;;;;6.30;51.03;95996.81;4954667;28;20407;-75
2023/11/26 04:26:38;;;;;;;0.85;0.30;;;;;;;6.28;51.24;95997.97;4970227;28;20043;-75
2023/11/26 04:29:03;;;;;;;0.45;0.28;;;;;;;6.32;50.52;96007.03;4954334;29;20031;-75
2023/11/26 04:31:29;;;;;;;0.43;0.30;;;;;;;6.25;50.64;95996.47;4938203;28;20074;-74
2023/11/26 04:33:54;;;;;;;1.25;0.30;;;;;;;6.33;50.44;96025.00;4970406;28;20027;-75
2023/11/26 04:36:20;;;;;;;0.95;0.30;;;;;;;6.34;50.40;96021.44;4970193;28;20047;-75
2023/11/26 04:38:45;;;;;;;0.70;0.20;;;;;;;6.29;50.60;96052.22;4969972;28;20087;-75
2023/11/26 04:41:11;;;;;;;1.42;0.30;;;;;;;6.30;50.75;96077.13;4970459;28;20043;-75
2023/11/26 04:43:36;;;;;;;1.20;0.20;;;;;;;6.32;50.89;96051.06;4970092;28;20063;-75
2023/11/26 04:46:02;;;;;;;0.20;0.15;;;;;;;6.25;50.65;96063.84;4970297;28;20034;-78
2023/11/26 04:48:29;;;;;;;0.35;0.17;;;;;;;6.22;51.08;96071.13;4971031;28;20474;-75
2023/11/26 04:50:56;;;;;;;0.98;0.55;;;;;;;6.23;50.51;96070.13;4987861;28;20046;-76
2023/11/26 04:53:24;;;;;;;1.63;0.82;;;;;;;6.21;51.15;96072.88;4989214;28;20035;-75
2023/11/26 04:55:50;;;;;;;1.98;0.70;;;;;;;6.18;51.60;96103.47;4989379;28;20039;-75
2023/11/26 04:58:16;;;;;;;2.65;1.08;;;;;;;6.21;51.27;96097.97;4988671;28;20041;-75
2023/11/26 05:00:42;;;;;;;3.85;1.40;;;;;;;6.19;51.61;96110.28;4989096;28;20070;-75
2023/11/26 05:03:07;;;;;;;2.20;1.13;;;;;;;6.17;52.00;96107.84;4989218;28;20065;-75
2023/11/26 05:05:33;;;;;;;2.10;1.00;;;;;;;6.21;51.70;96119.50;4973007;28;20035;-77
2023/11/26 05:07:58;;;;;;;12.23;1.50;;;;;;;6.19;51.74;96141.38;4972258;28;20039;-75
2023/11/26 05:10:26;;;;;;;2.30;1.02;;;;;;;6.19;51.28;96170.66;4989041;28;20034;-75
2023/11/26 05:12:51;;;;;;;6.30;0.80;;;;;;;6.18;50.96;96188.94;4988770;28;20118;-74
2023/11/26 05:15:17;;;;;;;1.30;0.70;;;;;;;6.22;51.34;96198.84;4972899;28;20039;-75
2023/11/26 05:17:43;;;;;;;2.10;0.90;;;;;;;6.27;51.58;96206.16;4956237;28;20046;-75
2023/11/26 05:20:13;;;;;;;2.28;1.05;;;;;;;6.27;51.18;96209.56;4988786;28;20035;-75
2023/11/26 05:22:39;;;;;;;1.60;0.70;;;;;;;6.37;51.19;96244.94;4985445;28;20415;-78
2023/11/26 05:25:06;;;;;;;4.65;1.10;;;;;;;6.36;51.24;96251.91;4964230;28;20081;-75
2023/11/26 05:27:31;;;;;;;3.72;1.70;;;;;;;6.42;51.25;96271.19;4956443;28;20098;-74
2023/11/26 05:29:56;;;;;;;3.83;1.95;;;;;;;6.46;51.54;96296.66;4979725;28;20589;-75
2023/11/26 05:32:22;;;;;;;5.55;2.95;;;;;;;6.50;51.32;96310.16;4959997;28;20045;-75
2023/11/26 05:34:48;;;;;;;6.22;3.30;;;;;;;6.52;51.17;96316.00;4945835;28;20031;-75
2023/11/26 05:37:14;;;;;;;7.40;3.65;;;;;;;6.51;51.48;96322.97;4949703;28;20027;-75
2023/11/26 05:39:40;;;;;;;5.97;2.92;;;;;;;6.57;51.02;96346.66;4965262;28;20477;-74
2023/11/26 05:42:06;;;;;;;5.45;2.88;;;;;;;6.62;51.22;96355.59;4952793;28;20070;-75
2023/11/26 05:44:31;;;;;;;6.65;3.20;;;;;;;6.65;51.48;96381.19;4962769;28;20034;-76
2023/11/26 05:46:57;;;;;;;5.25;2.80;;;;;;;6.69;51.33;96392.09;4945597;28;20077;-75
2023/11/26 05:49:22;;;;;;;6.45;3.00;;;;;;;6.73;51.34;96392.63;4934656;28;20031;-75
2023/11/26 05:51:48;;;;;;;6.07;2.95;;;;;;;6.74;51.37;96402.03;4958108;28;20110;-75
2023/11/26 05:54:14;;;;;;;5.82;3.15;;;;;;;6.77;51.72;96409.47;4962285;28;20039;-75
2023/11/26 05:56:45;;;;;;;4.85;2.65;;;;;;;6.76;51.82;96415.66;4961993;28;20031;-75
2023/11/26 05:59:10;;;;;;;5.28;2.80;;;;;;;6.82;51.68;96428.03;4982618;28;20109;-74
2023/11/26 06:01:36;;;;;;;4.20;2.05;;;;;;;6.83;51.81;96438.25;4956533;28;20117;-74
2023/11/26 06:04:02;;;;;;;4.15;2.15;;;;;;;6.85;51.68;96438.09;4971994;28;20047;-75
2023/11/26 06:06:28;;;;;;;4.38;2.10;;;;;;;6.86;51.87;96444.88;4971462;28;20043;-75
2023/11/26 06:08:53;;;;;;;5.80;2.38;;;;;;;6.85;52.03;96451.88;4956403;28;20047;-76
2023/11/26 06:11:19;;;;;;;4.47;2.20;;;;;;;6.90;51.89;96469.56;4975899;28;20049;-75
2023/11/26 06:13:44;;;;;;;3.33;1.80;;;;;;;6.92;52.25;96475.41;4959750;28;20031;-75
2023/11/26 06:16:10;;;;;;;3.05;1.50;;;;;;;6.90;52.36;96473.97;4976086;28;20074;-75
2023/11/26 06:18:37;;;;;;;3.35;1.65;;;;;;;6.95;52.31;96484.69;4959983;28;20042;-75
2023/11/26 06:21:03;;;;;;;2.53;1.30;;;;;;;6.96;52.44;96491.50;4966077;28;20051;-74
2023/11/26 06:23:29;;;;;;;2.13;1.20;;;;;;;6.98;52.97;96498.16;4972391;28;20031;-75
2023/11/26 06:25:55;;;;;;;2.67;1.30;;;;;;;7.00;52.21;96495.44;4955988;29;20098;-74
2023/11/26 06:28:20;;;;;;;3.08;1.15;;;;;;;7.02;52.42;96503.88;4972176;28;20496;-75
2023/11/26 06:30:46;;;;;;;5.07;1.00;;;;;;;7.06;52.86;96508.59;4956584;29;20048;-75
2023/11/26 06:33:11;;;;;;;2.58;1.13;;;;;;;7.04;52.63;96518.31;4972223;28;20518;-75
2023/11/26 06:35:37;;;;;;;1.83;0.90;;;;;;;7.09;52.59;96530.84;4956458;29;20110;-74
2023/11/26 06:38:02;;;;;;;1.52;0.77;;;;;;;7.13;52.29;96546.94;4973361;28;20031;-75
2023/11/26 06:40:28;;;;;;;1.80;0.80;;;;;;;7.16;52.43;96575.97;4955696;29;20078;-75
2023/11/26 06:42:54;;;;;;;1.02;0.65;;;;;;;7.18;52.66;96583.63;4956097;29;20114;-74
2023/11/26 06:45:20;;;;;;;1.50;0.70;;;;;;;7.15;52.70;96573.56;4955971;29;20122;-75
2023/11/26 06:47:46;;;;;;;1.17;0.70;;;;;;;7.18;52.59;96578.41;4974058;28;20035;-77
2023/11/26 06:50:12;;;;;;;1.17;0.70;;;;;;;7.23;52.54;96589.19;4971828;28;20093;-75
2023/11/26 06:52:37;;;;;;;1.55;1.00;;;;;;;7.23;52.51;96589.19;4972050;28;20043;-75
2023/11/26 06:55:05;;;;;;;2.92;1.40;;;;;;;7.23;52.36;96595.19;4956032;28;20039;-76
2023/11/26 06:57:32;;;;;;;4.28;2.15;;;;;;;7.25;52.61;96608.03;4970598;28;20067;-75
2023/11/26 06:59:58;;;;;;;4.88;2.55;;;;;;;7.24;52.56;96609.81;4951463;28;20170;-75
2023/11/26 07:02:25;;;;;;;6.80;3.30;;;;;;;7.33;52.54;96620.25;4947623;28;20027;-75
2023/11/26 07:04:51;;;;;;;5.03;3.05;;;;;;;7.34;52.40;96625.31;4972679;28;20035;-75
2023/11/26 07:07:22;;;;;;;6.18;3.00;;;;;;;7.33;52.66;96626.25;4965267;28;20062;-75
2023/11/26 07:09:47;;;;;;;5.50;3.13;;;;;;;7.41;52.84;96647.09;4947808;28;20038;-75
2023/11/26 07:12:13;;;;;;;5.70;3.30;;;;;;;7.45;52.20;96658.00;4948871;28;20042;-75
2023/11/26 07:14:38;;;;;;;4.78;2.78;;;;;;;7.45;52.63;96662.38;4980401;28;20512;-76
2023/11/26 07:17:05;;;;;;;5.15;2.67;;;;;;;7.52;52.66;96679.81;4949557;28;20022;-75
2023/11/26 07:19:30;;;;;;;4.15;2.53;;;;;;;7.56;52.19;96681.16;4948109;28;20501;-75
2023/11/26 07:21:56;;;;;;;4.85;2.25;;;;;;;7.56;52.08;96681.16;4964158;28;20019;-75
2023/11/26 07:24:22;;;;;;;4.13;2.35;;;;;;;7.60;52.31;96686.84;4964645;28;20031;-76
2023/11/26 07:26:48;;;;;;;3.50;2.00;;;;;;;7.69;52.57;96711.94;4958209;28;20074;-76
2023/11/26 07:29:14;;;;;;;5.57;2.22;;;;;;;7.69;52.12;96706.75;4954956;29;20064;-75
2023/11/26 07:31:39;;;;;;;3.50;1.92;;;;;;;7.77;51.98;96721.59;4954863;29;20066;-75
2023/11/26 07:34:05;;;;;;;3.65;1.95;;;;;;;7.81;52.13;96725.50;4939194;29;20269;-75
2023/11/26 07:36:32;;;;;;;3.25;1.70;;;;;;;7.88;52.27;96734.34;4954746;29;20046;-75
2023/11/26 07:39:00;;;;;;;2.72;1.48;;;;;;;7.93;51.97;96746.88;4938981;29;20589;-75
2023/11/26 07:41:26;;;;;;;3.08;1.60;;;;;;;7.97;51.94;96746.44;4938933;29;20034;-75
2023/11/26 07:43:52;;;;;;;1.88;1.25;;;;;;;8.05;52.05;96753.50;4965257;28;20126;-76
2023/11/26 07:46:18;;;;;;;3.30;1.30;;;;;;;8.12;51.65;96764.09;4954578;28;20054;-74
2023/11/26 07:48:45;;;;;;;2.33;1.20;;;;;;;8.13;52.08;96763.94;4970398;28;20027;-75
2023/11/26 07:51:11;;;;;;;2.03;1.08;;;;;;;8.24;51.54;96768.09;4954836;28;20046;-74
2023/11/26 07:53:38;;;;;;;2.05;0.90;;;;;;;8.30;51.48;96771.88;4970374;28;20051;-74
2023/11/26 07:56:03;;;;;;;1.70;1.00;;;;;;;8.36;51.68;96775.66;4980600;28;20134;-78
2023/11/26 07:58:31;;;;;;;1.73;0.80;;;;;;;8.46;51.50;96782.44;4963657;28;20494;-76
2023/11/26 08:00:57;;;;;;;1.88;1.00;;;;;;;8.52;51.91;96778.38;4959871;28;20030;-75
2023/11/26 08:03:25;;;;;;;1.85;0.93;;;;;;;8.61;51.59;96787.88;4968326;28;20042;-75
2023/11/26 08:05:51;;;;;;;1.63;0.85;;;;;;;8.72;51.61;96792.03;4973179;28;20085;-74
2023/11/26 08:08:20;;;;;;;1.90;1.05;;;;;;;8.77;51.27;96791.56;4957540;28;20035;-74
2023/11/26 08:10:48;;;;;;;1.60;0.80;;;;;;;8.88;51.81;96794.72;4973624;28;20513;-77
2023/11/26 08:13:14;;;;;;;2.20;1.02;;;;;;;8.98;51.65;96796.41;4969799;28;20043;-76
2023/11/26 08:15:39;;;;;;;8.38;0.90;;;;;;;9.14;56.95;96806.06;4971750;28;20514;-73
2023/11/26 08:18:06;;;;;;;3.13;1.00;;;;;;;9.53;59.44;96795.97;4969551;28;20071;-77
2023/11/26 08:20:32;;;;;;;3.38;0.90;;;;;;;9.79;59.70;96802.91;4957300;28;20065;-77
2023/11/26 08:23:01;;;;;;;6.30;1.00;;;;;;;10.29;64.08;96812.44;4974817;28;20473;-77
2023/11/26 08:25:29;;;;;;;4.97;0.77;;;;;;;10.88;63.19;96819.28;4979271;28;20550;-81
2023/11/26 08:27:55;;;;;;;7.50;0.60;;;;;;;11.13;61.40;96813.97;4972932;28;20027;-78
2023/11/26 08:30:38;;;;;;;14.00;0.93;;;;;;;11.44;60.74;96821.88;4966470;28;20081;-79
2023/11/26 08:33:05;;;;;;;2.83;0.75;;;;;;;11.68;57.90;96833.22;4967806;28;20066;-77
2023/11/26 08:35:31;;;;;;;2.35;0.75;;;;;;;11.84;55.84;96827.88;4960689;28;20483;-80
2023/11/26 08:37:56;;;;;;;3.08;0.65;;;;;;;11.92;54.56;96829.66;4954339;28;20045;-85
2023/11/26 08:40:25;;;;;;;4.30;0.60;;;;;;;12.10;53.78;96845.13;4938468;28;20065;-85
2023/11/26 08:42:54;;;;;;;1.75;0.68;;;;;;;12.34;52.81;96849.38;4954477;28;20455;-84
2023/11/26 08:45:23;;;;;;;1.08;0.30;;;;;;;12.43;52.29;96853.56;4970152;28;20031;-83
2023/11/26 08:47:48;;;;;;;1.10;0.40;;;;;;;12.42;51.56;96854.53;4953892;29;20066;-83
2023/11/26 08:50:14;;;;;;;4.90;0.52;;;;;;;12.50;51.53;96866.75;4954504;28;20495;-74
2023/11/26 08:52:39;;;;;;;5.85;1.30;;;;;;;12.67;53.24;96875.28;4938052;28;20062;-79
2023/11/26 08:55:05;;;;;;;4.70;1.80;;;;;;;13.00;59.59;96880.25;4954389;29;20359;-79
2023/11/26 08:57:31;;;;;;;2.97;1.58;;;;;;;13.33;59.76;96891.25;4954578;28;20142;-76
2023/11/26 08:59:57;;;;;;;5.07;1.80;;;;;;;13.53;55.83;96886.28;4954090;28;20078;-81
2023/11/26 09:02:24;;;;;;;10.00;1.88;;;;;;;13.75;53.63;96900.28;4953509;28;20057;-79
2023/11/26 09:04:50;;;;;;;11.90;1.92;;;;;;;14.40;61.74;96897.78;4938419;28;20031;-76
2023/11/26 09:07:16;;;;;;;5.45;1.35;;;;;;;14.97;58.76;96908.44;4954366;28;20135;-76
2023/11/26 09:09:42;;;;;;;5.18;1.35;;;;;;;15.50;54.60;96910.66;4953780;28;20046;-74
2023/11/26 09:12:08;;;;;;;3.53;1.25;;;;;;;15.93;56.41;96909.69;4953787;29;20070;-74
2023/11/26 09:14:34;;;;;;;19.13;1.85;;;;;;;16.44;53.03;96914.53;4953262;29;20471;-75
2023/11/26 09:17:00;;;;;;;10.02;1.25;;;;;;;16.71;51.92;96904.84;4937333;28;20040;-80
2023/11/26 09:19:25;;;;;;;12.95;1.33;;;;;;;17.05;48.91;96903.06;4953234;28;20047;-78
2023/11/26 09:21:51;;;;;;;13.50;1.20;;;;;;;17.11;48.62;96914.63;4954464;28;20463;-76
2023/11/26 09:24:17;;;;;;;9.25;1.10;;;;;;;17.30;47.11;96913.81;4954648;28;20069;-74
2023/11/26 09:26:43;;;;;;;3.13;0.80;;;;;;;17.51;46.02;96911.97;4952849;28;20219;-72
2023/11/26 09:29:09;;;;;;;3.95;0.90;;;;;;;18.03;44.16;96928.69;4969594;28;20074;-74
2023/11/26 09:31:38;;;;;;;7.07;1.48;;;;;;;17.71;43.50;96925.91;4969135;28;20054;-72
2023/11/26 09:34:03;;;;;;;2.58;0.75;;;;;;;17.62;43.08;96927.16;4969354;28;20031;-71
2023/11/26 09:36:29;;;;;;;8.00;0.70;;;;;;;17.44;42.50;96927.81;4969427;28;20407;-70
2023/11/26 09:38:54;;;;;;;4.78;1.30;;;;;;;17.26;42.27;96935.53;4952392;28;20035;-72
2023/11/26 09:41:20;;;;;;;6.40;0.98;;;;;;;17.42;41.37;96953.56;4936977;29;20051;-70
2023/11/26 09:43:46;;;;;;;1.38;0.75;;;;;;;17.84;40.33;96955.94;4952761;28;20063;-71
2023/11/26 09:46:13;;;;;;;3.33;0.82;;;;;;;17.80;39.54;96962.63;4953045;29;20031;-70
2023/11/26 09:48:39;;;;;;;1.77;0.70;;;;;;;17.50;39.67;96982.34;4952566;28;20403;-71
2023/11/26 09:51:05;;;;;;;3.55;1.98;;;;;;;17.03;40.23;96986.81;4952873;29;20039;-71
2023/11/26 09:53:31;;;;;;;10.88;4.75;;;;;;;16.97;40.05;96998.97;4953286;28;20047;-70
2023/11/26 09:55:57;;;;;;;10.65;7.57;;;;;;;17.78;38.47;96994.50;4953322;29;20098;-70
2023/11/26 09:58:22;;;;;;;15.98;10.43;;;;;;;18.33;37.11;97017.13;4969129;28;20023;-70
2023/11/26 10:00:48;;;;;;;22.15;12.70;;;;;;;18.56;36.43;97033.31;4952915;28;20039;-70
2023/11/26 10:03:13;;;;;;;19.30;13.02;;;;;;;18.40;36.55;97026.66;4936986;29;20038;-70
2023/11/26 10:05:40;;;;;;;21.17;14.38;;;;;;;18.05;36.81;97026.97;4952552;29;20039;-70
2023/11/26 10:08:07;;;;;;;18.75;14.18;;;;;;;17.71;37.19;97030.63;4937562;29;20044;-70
2023/11/26 10:10:33;;;;;;;19.58;14.02;;;;;;;17.34;37.74;97043.44;4952876;29;20086;-70
2023/11/26 10:13:00;;;;;;;18.58;13.63;;;;;;;17.10;37.81;97053.53;4937009;29;20027;-70
2023/11/26 10:15:28;;;;;;;18.92;13.40;;;;;;;16.89;37.85;97046.59;4937496;28;20062;-70
2023/11/26 10:18:04;;;;;;;16.92;12.15;;;;;;;16.71;38.31;97060.28;4937314;29;20039;-69
2023/11/26 10:20:34;;;;;;;17.67;11.93;;;;;;;16.48;38.15;97071.16;4937317;28;20106;-69
2023/11/26 10:23:00;;;;;;;14.50;10.32;;;;;;;16.21;38.56;97070.19;4921495;29;20031;-70
2023/11/26 10:25:25;;;;;;;13.95;9.65;;;;;;;15.98;38.61;97071.25;4952925;28;20565;-71
2023/11/26 10:27:51;;;;;;;12.80;8.65;;;;;;;15.73;39.07;97068.19;4952723;29;20027;-70
2023/11/26 10:30:24;;;;;;;11.30;7.75;;;;;;;15.52;39.24;97061.16;4952643;28;20146;-70
2023/11/26 10:33:00;;;;;;;10.05;6.80;;;;;;;15.33;39.57;97079.19;4968660;28;20476;-69
2023/11/26 10:35:25;;;;;;;9.98;5.93;;;;;;;15.08;39.79;97064.78;4952467;28;20043;-70
2023/11/26 10:38:06;;;;;;;7.00;4.65;;;;;;;14.78;40.08;97057.00;4968572;28;20047;-71
2023/11/26 10:40:33;;;;;;;6.30;3.97;;;;;;;14.45;40.59;97060.00;4952613;28;20031;-70
2023/11/26 10:43:06;;;;;;;5.10;3.45;;;;;;;14.02;41.24;97055.38;4968348;28;20111;-70
2023/11/26 10:45:31;;;;;;;5.38;3.20;;;;;;;13.94;41.42;97069.41;4953276;28;20065;-70
2023/11/26 10:47:59;;;;;;;5.07;2.97;;;;;;;13.70;41.80;97088.00;4968460;28;20499;-70
2023/11/26 10:50:24;;;;;;;4.85;3.03;;;;;;;13.58;42.16;97090.22;4952350;28;20422;-70
2023/11/26 10:52:53;;;;;;;7.00;3.30;;;;;;;13.43;42.42;97110.34;4968535;28;20054;-70
2023/11/26 10:55:24;;;;;;;4.20;2.70;;;;;;;13.21;42.42;97097.81;4936223;29;20466;-70
2023/11/26 10:57:54;;;;;;;3.72;2.50;;;;;;;13.08;42.52;97121.16;4955186;28;20031;-70
2023/11/26 11:00:20;;;;;;;3.58;2.20;;;;;;;12.88;42.85;97122.59;4939590;28;20039;-70
2023/11/26 11:02:45;;;;;;;3.45;2.15;;;;;;;12.66;43.25;97127.56;4955645;29;20030;-71
2023/11/26 11:05:11;;;;;;;4.10;1.80;;;;;;;12.53;43.38;97146.44;4940349;28;20074;-71
2023/11/26 11:07:38;;;;;;;16.73;1.95;;;;;;;12.39;43.85;97154.97;4955429;28;20075;-70
2023/11/26 11:10:22;;;;;;;2.80;1.77;;;;;;;12.21;43.86;97158.63;4971695;28;20035;-71
2023/11/26 11:12:52;;;;;;;4.13;1.60;;;;;;;12.08;43.99;97169.59;4957065;28;20479;-71
2023/11/26 11:15:22;;;;;;;3.13;1.60;;;;;;;11.98;44.57;97179.38;4955590;28;20122;-71
2023/11/26 11:17:48;;;;;;;2.22;1.30;;;;;;;11.89;44.74;97169.88;4971586;28;20023;-70
2023/11/26 11:20:14;;;;;;;2.45;1.42;;;;;;;11.79;44.84;97164.81;4955753;28;20427;-70
2023/11/26 11:22:42;;;;;;;2.30;1.30;;;;;;;11.63;44.91;97165.63;4955802;28;20093;-70
2023/11/26 11:25:14;;;;;;;8.07;1.40;;;;;;;11.57;44.67;97188.03;4955158;28;20063;-71
2023/11/26 11:27:54;;;;;;;4.03;1.20;;;;;;;11.48;44.84;97183.75;4955539;28;20046;-70
2023/11/26 11:30:31;;;;;;;3.28;1.40;;;;;;;11.38;44.69;97199.53;4956597;28;20031;-71
2023/11/26 11:33:07;;;;;;;4.57;1.20;;;;;;;11.28;44.75;97204.09;4971229;28;20035;-71
2023/11/26 11:35:41;;;;;;;2.13;1.10;;;;;;;11.27;44.74;97219.94;4971760;28;20065;-70
2023/11/26 11:38:07;;;;;;;3.03;1.20;;;;;;;11.21;44.81;97218.75;4955165;28;20034;-70